sensor_id;sensor_type;location;lat;lon;timestamp;P1;durP1;ratioP1;P2;durP2;ratioP2
78296;SDS011;67555;47.660;19.622;2023-05-10T00:00:46;8.68;;;4.32;;
78296;SDS011;67555;47.660;19.622;2023-05-10T00:03:12;10.30;;;4.13;;
78296;SDS011;67555;47.660;19.622;2023-05-10T00:05:38;7.90;;;3.58;;
78296;SDS011;67555;47.660;19.622;2023-05-10T00:08:04;9.75;;;4.20;;
78296;SDS011;67555;47.660;19.622;2023-05-10T00:10:29;9.85;;;4.00;;
78296;SDS011;67555;47.660;19.622;2023-05-10T00:12:55;9.95;;;4.32;;
78296;SDS011;67555;47.660;19.622;2023-05-10T00:15:21;8.90;;;4.13;;
78296;SDS011;67555;47.660;19.622;2023-05-10T00:17:47;10.05;;;4.15;;
78296;SDS011;67555;47.660;19.622;2023-05-10T00:20:12;10.38;;;4.75;;
78296;SDS011;67555;47.660;19.622;2023-05-10T00:22:38;12.30;;;4.25;;
78296;SDS011;67555;47.660;19.622;2023-05-10T00:25:04;8.73;;;4.13;;
78296;SDS011;67555;47.660;19.622;2023-05-10T00:27:31;6.90;;;3.95;;
78296;SDS011;67555;47.660;19.622;2023-05-10T00:29:56;9.02;;;3.92;;
78296;SDS011;67555;47.660;19.622;2023-05-10T00:32:22;7.57;;;3.47;;
78296;SDS011;67555;47.660;19.622;2023-05-10T00:34:48;7.60;;;4.13;;
78296;SDS011;67555;47.660;19.622;2023-05-10T00:37:13;7.68;;;4.25;;
78296;SDS011;67555;47.660;19.622;2023-05-10T00:39:39;11.23;;;4.35;;
78296;SDS011;67555;47.660;19.622;2023-05-10T00:42:05;10.15;;;4.40;;
78296;SDS011;67555;47.660;19.622;2023-05-10T00:44:30;8.77;;;4.25;;
78296;SDS011;67555;47.660;19.622;2023-05-10T00:46:56;16.17;;;4.25;;
78296;SDS011;67555;47.660;19.622;2023-05-10T00:49:23;9.55;;;4.57;;
78296;SDS011;67555;47.660;19.622;2023-05-10T00:51:48;7.60;;;3.90;;
78296;SDS011;67555;47.660;19.622;2023-05-10T00:54:14;8.23;;;3.97;;
78296;SDS011;67555;47.660;19.622;2023-05-10T00:56:40;10.20;;;3.80;;
78296;SDS011;67555;47.660;19.622;2023-05-10T00:59:09;7.70;;;3.67;;
78296;SDS011;67555;47.660;19.622;2023-05-10T01:04:02;10.73;;;4.20;;
78296;SDS011;67555;47.660;19.622;2023-05-10T01:06:28;9.40;;;4.20;;
78296;SDS011;67555;47.660;19.622;2023-05-10T01:08:54;8.35;;;4.28;;
78296;SDS011;67555;47.660;19.622;2023-05-10T01:11:21;6.10;;;3.30;;
78296;SDS011;67555;47.660;19.622;2023-05-10T01:13:47;7.43;;;3.70;;
78296;SDS011;67555;47.660;19.622;2023-05-10T01:16:20;9.45;;;4.63;;
78296;SDS011;67555;47.660;19.622;2023-05-10T01:18:46;11.32;;;4.43;;
78296;SDS011;67555;47.660;19.622;2023-05-10T01:27:17;7.78;;;3.95;;
78296;SDS011;67555;47.660;19.622;2023-05-10T01:35:26;7.65;;;3.75;;
78296;SDS011;67555;47.660;19.622;2023-05-10T01:38:02;12.90;;;4.93;;
78296;SDS011;67555;47.660;19.622;2023-05-10T01:43:56;7.90;;;4.10;;
78296;SDS011;67555;47.660;19.622;2023-05-10T01:46:43;10.35;;;4.55;;
78296;SDS011;67555;47.660;19.622;2023-05-10T01:49:17;6.25;;;3.95;;
78296;SDS011;67555;47.660;19.622;2023-05-10T01:51:50;7.47;;;3.70;;
78296;SDS011;67555;47.660;19.622;2023-05-10T01:54:20;6.25;;;3.50;;
78296;SDS011;67555;47.660;19.622;2023-05-10T01:56:52;10.15;;;3.83;;
78296;SDS011;67555;47.660;19.622;2023-05-10T01:59:21;8.63;;;4.15;;
78296;SDS011;67555;47.660;19.622;2023-05-10T02:01:53;6.65;;;3.53;;
78296;SDS011;67555;47.660;19.622;2023-05-10T02:04:21;6.82;;;3.58;;
78296;SDS011;67555;47.660;19.622;2023-05-10T02:06:48;8.77;;;4.10;;
78296;SDS011;67555;47.660;19.622;2023-05-10T02:09:16;10.73;;;4.20;;
78296;SDS011;67555;47.660;19.622;2023-05-10T02:11:43;9.15;;;4.35;;
78296;SDS011;67555;47.660;19.622;2023-05-10T02:14:09;6.55;;;4.20;;
78296;SDS011;67555;47.660;19.622;2023-05-10T02:16:37;9.10;;;4.10;;
78296;SDS011;67555;47.660;19.622;2023-05-10T02:19:04;7.93;;;3.75;;
78296;SDS011;67555;47.660;19.622;2023-05-10T02:21:31;13.48;;;4.40;;
78296;SDS011;67555;47.660;19.622;2023-05-10T02:23:57;8.43;;;3.92;;
78296;SDS011;67555;47.660;19.622;2023-05-10T02:26:26;7.90;;;4.20;;
78296;SDS011;67555;47.660;19.622;2023-05-10T02:28:52;11.07;;;4.18;;
78296;SDS011;67555;47.660;19.622;2023-05-10T02:31:19;9.52;;;4.00;;
78296;SDS011;67555;47.660;19.622;2023-05-10T02:33:46;8.10;;;4.15;;
78296;SDS011;67555;47.660;19.622;2023-05-10T02:36:13;8.63;;;4.47;;
78296;SDS011;67555;47.660;19.622;2023-05-10T02:38:41;9.63;;;4.80;;
78296;SDS011;67555;47.660;19.622;2023-05-10T02:41:08;8.10;;;3.58;;
78296;SDS011;67555;47.660;19.622;2023-05-10T02:43:35;7.40;;;3.90;;
78296;SDS011;67555;47.660;19.622;2023-05-10T02:46:04;11.23;;;4.43;;
78296;SDS011;67555;47.660;19.622;2023-05-10T02:48:30;9.02;;;4.53;;
78296;SDS011;67555;47.660;19.622;2023-05-10T02:50:56;8.52;;;4.38;;
78296;SDS011;67555;47.660;19.622;2023-05-10T02:53:31;11.75;;;4.50;;
78296;SDS011;67555;47.660;19.622;2023-05-10T02:55:59;12.15;;;4.93;;
78296;SDS011;67555;47.660;19.622;2023-05-10T02:58:28;9.85;;;4.53;;
78296;SDS011;67555;47.660;19.622;2023-05-10T03:00:54;9.30;;;4.28;;
78296;SDS011;67555;47.660;19.622;2023-05-10T03:03:20;8.85;;;4.07;;
78296;SDS011;67555;47.660;19.622;2023-05-10T03:05:46;8.68;;;4.47;;
78296;SDS011;67555;47.660;19.622;2023-05-10T03:08:11;7.47;;;4.25;;
78296;SDS011;67555;47.660;19.622;2023-05-10T03:10:45;8.55;;;4.82;;
78296;SDS011;67555;47.660;19.622;2023-05-10T03:13:31;12.18;;;4.90;;
78296;SDS011;67555;47.660;19.622;2023-05-10T03:21:49;7.85;;;4.32;;
78296;SDS011;67555;47.660;19.622;2023-05-10T03:24:20;8.05;;;4.00;;
78296;SDS011;67555;47.660;19.622;2023-05-10T03:26:48;11.57;;;4.72;;
78296;SDS011;67555;47.660;19.622;2023-05-10T03:29:16;13.75;;;5.10;;
78296;SDS011;67555;47.660;19.622;2023-05-10T03:31:43;8.43;;;4.50;;
78296;SDS011;67555;47.660;19.622;2023-05-10T03:34:09;8.00;;;3.72;;
78296;SDS011;67555;47.660;19.622;2023-05-10T03:36:35;7.63;;;4.28;;
78296;SDS011;67555;47.660;19.622;2023-05-10T03:39:01;11.70;;;5.10;;
78296;SDS011;67555;47.660;19.622;2023-05-10T03:41:27;10.88;;;4.85;;
78296;SDS011;67555;47.660;19.622;2023-05-10T03:43:53;12.32;;;5.18;;
78296;SDS011;67555;47.660;19.622;2023-05-10T03:46:19;9.85;;;4.80;;
78296;SDS011;67555;47.660;19.622;2023-05-10T03:48:45;13.80;;;5.47;;
78296;SDS011;67555;47.660;19.622;2023-05-10T03:51:10;8.25;;;4.72;;
78296;SDS011;67555;47.660;19.622;2023-05-10T03:53:36;10.27;;;5.25;;
78296;SDS011;67555;47.660;19.622;2023-05-10T03:56:02;10.82;;;5.07;;
78296;SDS011;67555;47.660;19.622;2023-05-10T03:58:29;11.32;;;5.20;;
78296;SDS011;67555;47.660;19.622;2023-05-10T04:00:54;8.90;;;4.60;;
78296;SDS011;67555;47.660;19.622;2023-05-10T04:03:20;9.73;;;5.18;;
78296;SDS011;67555;47.660;19.622;2023-05-10T04:05:45;8.27;;;4.47;;
78296;SDS011;67555;47.660;19.622;2023-05-10T04:08:11;7.82;;;4.53;;
78296;SDS011;67555;47.660;19.622;2023-05-10T04:10:37;8.40;;;4.70;;
78296;SDS011;67555;47.660;19.622;2023-05-10T04:13:03;10.50;;;5.57;;
78296;SDS011;67555;47.660;19.622;2023-05-10T04:15:28;10.75;;;5.13;;
78296;SDS011;67555;47.660;19.622;2023-05-10T04:17:54;10.02;;;5.38;;
78296;SDS011;67555;47.660;19.622;2023-05-10T04:20:20;9.55;;;4.72;;
78296;SDS011;67555;47.660;19.622;2023-05-10T04:22:46;8.05;;;4.68;;
78296;SDS011;67555;47.660;19.622;2023-05-10T04:25:11;8.18;;;4.22;;
78296;SDS011;67555;47.660;19.622;2023-05-10T04:27:37;10.27;;;4.95;;
78296;SDS011;67555;47.660;19.622;2023-05-10T04:30:03;10.50;;;4.90;;
78296;SDS011;67555;47.660;19.622;2023-05-10T04:32:29;8.95;;;5.00;;
78296;SDS011;67555;47.660;19.622;2023-05-10T04:34:55;9.68;;;4.78;;
78296;SDS011;67555;47.660;19.622;2023-05-10T04:37:20;9.10;;;4.93;;
78296;SDS011;67555;47.660;19.622;2023-05-10T04:39:47;12.15;;;5.30;;
78296;SDS011;67555;47.660;19.622;2023-05-10T04:42:13;9.80;;;4.70;;
78296;SDS011;67555;47.660;19.622;2023-05-10T04:44:40;7.28;;;4.03;;
78296;SDS011;67555;47.660;19.622;2023-05-10T04:47:06;10.52;;;4.97;;
78296;SDS011;67555;47.660;19.622;2023-05-10T04:49:31;9.65;;;4.85;;
78296;SDS011;67555;47.660;19.622;2023-05-10T04:51:57;10.88;;;5.55;;
78296;SDS011;67555;47.660;19.622;2023-05-10T04:54:23;11.35;;;5.13;;
78296;SDS011;67555;47.660;19.622;2023-05-10T04:56:50;8.85;;;5.10;;
78296;SDS011;67555;47.660;19.622;2023-05-10T04:59:16;9.90;;;5.20;;
78296;SDS011;67555;47.660;19.622;2023-05-10T05:01:42;9.10;;;4.88;;
78296;SDS011;67555;47.660;19.622;2023-05-10T05:04:08;7.97;;;4.47;;
78296;SDS011;67555;47.660;19.622;2023-05-10T05:06:33;12.10;;;5.18;;
78296;SDS011;67555;47.660;19.622;2023-05-10T05:08:59;13.30;;;4.82;;
78296;SDS011;67555;47.660;19.622;2023-05-10T05:11:25;12.77;;;4.28;;
78296;SDS011;67555;47.660;19.622;2023-05-10T05:13:51;8.65;;;4.53;;
78296;SDS011;67555;47.660;19.622;2023-05-10T05:16:16;10.43;;;4.63;;
78296;SDS011;67555;47.660;19.622;2023-05-10T05:18:42;9.88;;;4.72;;
78296;SDS011;67555;47.660;19.622;2023-05-10T05:21:18;9.40;;;4.75;;
78296;SDS011;67555;47.660;19.622;2023-05-10T05:23:44;8.13;;;4.43;;
78296;SDS011;67555;47.660;19.622;2023-05-10T05:26:10;13.40;;;5.22;;
78296;SDS011;67555;47.660;19.622;2023-05-10T05:28:36;10.50;;;4.78;;
78296;SDS011;67555;47.660;19.622;2023-05-10T05:31:06;8.63;;;4.65;;
78296;SDS011;67555;47.660;19.622;2023-05-10T05:33:35;13.43;;;5.30;;
78296;SDS011;67555;47.660;19.622;2023-05-10T05:36:01;11.05;;;5.35;;
78296;SDS011;67555;47.660;19.622;2023-05-10T05:38:28;11.35;;;4.95;;
78296;SDS011;67555;47.660;19.622;2023-05-10T05:40:53;10.68;;;4.85;;
78296;SDS011;67555;47.660;19.622;2023-05-10T05:43:19;9.65;;;4.57;;
78296;SDS011;67555;47.660;19.622;2023-05-10T05:45:45;11.55;;;4.93;;
78296;SDS011;67555;47.660;19.622;2023-05-10T05:48:11;11.63;;;4.80;;
78296;SDS011;67555;47.660;19.622;2023-05-10T05:50:36;9.13;;;5.07;;
78296;SDS011;67555;47.660;19.622;2023-05-10T05:53:02;15.85;;;4.75;;
78296;SDS011;67555;47.660;19.622;2023-05-10T05:55:28;20.15;;;5.65;;
78296;SDS011;67555;47.660;19.622;2023-05-10T05:57:54;10.45;;;4.35;;
78296;SDS011;67555;47.660;19.622;2023-05-10T06:00:20;7.05;;;4.20;;
78296;SDS011;67555;47.660;19.622;2023-05-10T06:02:46;10.50;;;4.47;;
78296;SDS011;67555;47.660;19.622;2023-05-10T06:05:12;10.52;;;4.90;;
78296;SDS011;67555;47.660;19.622;2023-05-10T06:07:39;12.32;;;4.85;;
78296;SDS011;67555;47.660;19.622;2023-05-10T06:10:07;11.00;;;4.93;;
78296;SDS011;67555;47.660;19.622;2023-05-10T06:12:34;10.80;;;4.72;;
78296;SDS011;67555;47.660;19.622;2023-05-10T06:15:00;7.63;;;4.75;;
78296;SDS011;67555;47.660;19.622;2023-05-10T06:17:27;9.45;;;4.72;;
78296;SDS011;67555;47.660;19.622;2023-05-10T06:19:53;12.02;;;5.18;;
78296;SDS011;67555;47.660;19.622;2023-05-10T06:22:19;10.25;;;5.03;;
78296;SDS011;67555;47.660;19.622;2023-05-10T06:24:47;10.77;;;4.88;;
78296;SDS011;67555;47.660;19.622;2023-05-10T06:27:13;12.32;;;5.40;;
78296;SDS011;67555;47.660;19.622;2023-05-10T06:29:39;10.77;;;4.80;;
78296;SDS011;67555;47.660;19.622;2023-05-10T06:32:05;16.65;;;5.20;;
78296;SDS011;67555;47.660;19.622;2023-05-10T06:34:30;9.38;;;4.80;;
78296;SDS011;67555;47.660;19.622;2023-05-10T06:36:56;11.85;;;5.20;;
78296;SDS011;67555;47.660;19.622;2023-05-10T06:39:22;8.38;;;4.53;;
78296;SDS011;67555;47.660;19.622;2023-05-10T06:41:48;9.23;;;4.82;;
78296;SDS011;67555;47.660;19.622;2023-05-10T06:44:13;14.05;;;4.68;;
78296;SDS011;67555;47.660;19.622;2023-05-10T06:46:39;11.05;;;5.15;;
78296;SDS011;67555;47.660;19.622;2023-05-10T06:49:06;14.40;;;5.53;;
78296;SDS011;67555;47.660;19.622;2023-05-10T06:51:32;8.35;;;4.65;;
78296;SDS011;67555;47.660;19.622;2023-05-10T06:53:57;11.75;;;5.28;;
78296;SDS011;67555;47.660;19.622;2023-05-10T06:56:25;9.35;;;4.57;;
78296;SDS011;67555;47.660;19.622;2023-05-10T06:58:51;8.10;;;4.07;;
78296;SDS011;67555;47.660;19.622;2023-05-10T07:01:16;12.52;;;5.57;;
78296;SDS011;67555;47.660;19.622;2023-05-10T07:03:42;12.93;;;5.97;;
78296;SDS011;67555;47.660;19.622;2023-05-10T07:06:08;14.23;;;5.35;;
78296;SDS011;67555;47.660;19.622;2023-05-10T07:08:34;9.05;;;5.10;;
78296;SDS011;67555;47.660;19.622;2023-05-10T07:11:06;10.77;;;5.13;;
78296;SDS011;67555;47.660;19.622;2023-05-10T07:13:38;14.68;;;4.78;;
78296;SDS011;67555;47.660;19.622;2023-05-10T07:16:06;14.00;;;5.30;;
78296;SDS011;67555;47.660;19.622;2023-05-10T07:18:32;9.55;;;5.10;;
78296;SDS011;67555;47.660;19.622;2023-05-10T07:20:58;8.82;;;5.03;;
78296;SDS011;67555;47.660;19.622;2023-05-10T07:23:24;7.90;;;4.45;;
78296;SDS011;67555;47.660;19.622;2023-05-10T07:25:50;10.27;;;5.40;;
78296;SDS011;67555;47.660;19.622;2023-05-10T07:28:17;8.93;;;5.32;;
78296;SDS011;67555;47.660;19.622;2023-05-10T07:30:43;9.32;;;4.80;;
78296;SDS011;67555;47.660;19.622;2023-05-10T07:33:10;10.07;;;4.88;;
78296;SDS011;67555;47.660;19.622;2023-05-10T07:35:37;9.82;;;5.03;;
78296;SDS011;67555;47.660;19.622;2023-05-10T07:38:03;9.45;;;4.45;;
78296;SDS011;67555;47.660;19.622;2023-05-10T07:40:29;9.18;;;4.38;;
78296;SDS011;67555;47.660;19.622;2023-05-10T07:42:55;8.93;;;4.75;;
78296;SDS011;67555;47.660;19.622;2023-05-10T07:45:21;10.73;;;5.22;;
78296;SDS011;67555;47.660;19.622;2023-05-10T07:47:47;9.80;;;4.38;;
78296;SDS011;67555;47.660;19.622;2023-05-10T07:50:13;8.70;;;4.93;;
78296;SDS011;67555;47.660;19.622;2023-05-10T07:52:39;8.93;;;4.55;;
78296;SDS011;67555;47.660;19.622;2023-05-10T07:55:05;8.40;;;5.05;;
78296;SDS011;67555;47.660;19.622;2023-05-10T07:57:33;6.93;;;4.20;;
78296;SDS011;67555;47.660;19.622;2023-05-10T07:59:59;11.15;;;4.80;;
78296;SDS011;67555;47.660;19.622;2023-05-10T08:02:25;10.20;;;5.18;;
78296;SDS011;67555;47.660;19.622;2023-05-10T08:04:52;6.80;;;4.43;;
78296;SDS011;67555;47.660;19.622;2023-05-10T08:07:17;8.30;;;4.43;;
78296;SDS011;67555;47.660;19.622;2023-05-10T08:09:43;8.00;;;4.75;;
78296;SDS011;67555;47.660;19.622;2023-05-10T08:12:09;12.13;;;5.25;;
78296;SDS011;67555;47.660;19.622;2023-05-10T08:14:35;8.90;;;4.78;;
78296;SDS011;67555;47.660;19.622;2023-05-10T08:17:03;9.90;;;4.65;;
78296;SDS011;67555;47.660;19.622;2023-05-10T08:19:29;9.10;;;4.55;;
78296;SDS011;67555;47.660;19.622;2023-05-10T08:21:55;7.32;;;4.55;;
78296;SDS011;67555;47.660;19.622;2023-05-10T08:24:21;9.48;;;4.80;;
78296;SDS011;67555;47.660;19.622;2023-05-10T08:26:47;11.38;;;4.63;;
78296;SDS011;67555;47.660;19.622;2023-05-10T08:29:13;7.65;;;4.38;;
78296;SDS011;67555;47.660;19.622;2023-05-10T08:31:39;6.97;;;4.53;;
78296;SDS011;67555;47.660;19.622;2023-05-10T08:34:05;6.70;;;4.57;;
78296;SDS011;67555;47.660;19.622;2023-05-10T08:36:31;10.07;;;5.03;;
78296;SDS011;67555;47.660;19.622;2023-05-10T08:38:57;8.40;;;4.80;;
78296;SDS011;67555;47.660;19.622;2023-05-10T08:41:23;8.15;;;4.28;;
78296;SDS011;67555;47.660;19.622;2023-05-10T08:43:50;6.40;;;3.65;;
78296;SDS011;67555;47.660;19.622;2023-05-10T08:46:18;8.55;;;4.57;;
78296;SDS011;67555;47.660;19.622;2023-05-10T08:48:45;6.97;;;4.10;;
78296;SDS011;67555;47.660;19.622;2023-05-10T08:51:18;7.82;;;4.15;;
78296;SDS011;67555;47.660;19.622;2023-05-10T08:53:46;7.50;;;4.22;;
78296;SDS011;67555;47.660;19.622;2023-05-10T08:56:13;10.13;;;4.30;;
78296;SDS011;67555;47.660;19.622;2023-05-10T08:58:40;8.95;;;4.30;;
78296;SDS011;67555;47.660;19.622;2023-05-10T09:01:06;6.05;;;4.18;;
78296;SDS011;67555;47.660;19.622;2023-05-10T09:03:33;6.00;;;3.58;;
78296;SDS011;67555;47.660;19.622;2023-05-10T09:06:00;6.28;;;3.70;;
78296;SDS011;67555;47.660;19.622;2023-05-10T09:08:26;8.05;;;3.85;;
78296;SDS011;67555;47.660;19.622;2023-05-10T09:10:52;7.78;;;3.88;;
78296;SDS011;67555;47.660;19.622;2023-05-10T09:13:19;6.63;;;4.07;;
78296;SDS011;67555;47.660;19.622;2023-05-10T09:15:47;10.55;;;4.18;;
78296;SDS011;67555;47.660;19.622;2023-05-10T09:18:13;9.32;;;3.85;;
78296;SDS011;67555;47.660;19.622;2023-05-10T09:20:40;6.65;;;3.60;;
78296;SDS011;67555;47.660;19.622;2023-05-10T09:23:06;5.68;;;3.55;;
78296;SDS011;67555;47.660;19.622;2023-05-10T09:25:32;8.00;;;3.40;;
78296;SDS011;67555;47.660;19.622;2023-05-10T09:28:02;6.93;;;4.10;;
78296;SDS011;67555;47.660;19.622;2023-05-10T09:30:31;10.30;;;4.10;;
78296;SDS011;67555;47.660;19.622;2023-05-10T09:32:57;7.90;;;3.90;;
78296;SDS011;67555;47.660;19.622;2023-05-10T09:35:24;7.25;;;3.30;;
78296;SDS011;67555;47.660;19.622;2023-05-10T09:37:52;9.15;;;4.03;;
78296;SDS011;67555;47.660;19.622;2023-05-10T09:40:20;6.40;;;4.03;;
78296;SDS011;67555;47.660;19.622;2023-05-10T09:42:57;8.55;;;3.80;;
78296;SDS011;67555;47.660;19.622;2023-05-10T09:45:26;5.72;;;3.75;;
78296;SDS011;67555;47.660;19.622;2023-05-10T09:47:52;7.28;;;3.50;;
78296;SDS011;67555;47.660;19.622;2023-05-10T09:50:19;5.88;;;3.20;;
78296;SDS011;67555;47.660;19.622;2023-05-10T09:55:22;6.00;;;3.45;;
78296;SDS011;67555;47.660;19.622;2023-05-10T09:57:49;4.72;;;2.83;;
78296;SDS011;67555;47.660;19.622;2023-05-10T10:00:24;6.13;;;3.42;;
78296;SDS011;67555;47.660;19.622;2023-05-10T10:02:54;10.07;;;4.00;;
78296;SDS011;67555;47.660;19.622;2023-05-10T10:05:28;7.65;;;2.90;;
78296;SDS011;67555;47.660;19.622;2023-05-10T10:07:55;5.60;;;3.25;;
78296;SDS011;67555;47.660;19.622;2023-05-10T10:10:22;6.40;;;3.67;;
78296;SDS011;67555;47.660;19.622;2023-05-10T10:12:52;7.13;;;3.60;;
78296;SDS011;67555;47.660;19.622;2023-05-10T10:15:18;8.90;;;3.38;;
78296;SDS011;67555;47.660;19.622;2023-05-10T10:17:48;5.10;;;3.08;;
78296;SDS011;67555;47.660;19.622;2023-05-10T10:20:15;4.55;;;2.78;;
78296;SDS011;67555;47.660;19.622;2023-05-10T10:22:42;4.90;;;2.72;;
78296;SDS011;67555;47.660;19.622;2023-05-10T10:25:17;5.30;;;3.08;;
78296;SDS011;67555;47.660;19.622;2023-05-10T10:35:53;7.63;;;3.88;;
78296;SDS011;67555;47.660;19.622;2023-05-10T10:38:20;8.40;;;3.42;;
78296;SDS011;67555;47.660;19.622;2023-05-10T10:40:46;7.90;;;3.25;;
78296;SDS011;67555;47.660;19.622;2023-05-10T10:43:25;6.60;;;3.22;;
78296;SDS011;67555;47.660;19.622;2023-05-10T10:48:38;9.40;;;2.83;;
78296;SDS011;67555;47.660;19.622;2023-05-10T10:51:04;9.57;;;3.30;;
78296;SDS011;67555;47.660;19.622;2023-05-10T10:53:30;5.20;;;3.05;;
78296;SDS011;67555;47.660;19.622;2023-05-10T10:56:10;6.63;;;3.03;;
78296;SDS011;67555;47.660;19.622;2023-05-10T11:01:11;7.35;;;3.55;;
78296;SDS011;67555;47.660;19.622;2023-05-10T11:03:40;5.55;;;3.30;;
78296;SDS011;67555;47.660;19.622;2023-05-10T11:06:06;7.18;;;3.83;;
78296;SDS011;67555;47.660;19.622;2023-05-10T11:08:34;5.55;;;3.20;;
78296;SDS011;67555;47.660;19.622;2023-05-10T11:16:10;5.88;;;2.55;;
78296;SDS011;67555;47.660;19.622;2023-05-10T11:21:24;4.60;;;2.63;;
78296;SDS011;67555;47.660;19.622;2023-05-10T11:23:51;5.00;;;2.63;;
78296;SDS011;67555;47.660;19.622;2023-05-10T11:26:23;8.80;;;3.08;;
78296;SDS011;67555;47.660;19.622;2023-05-10T11:28:51;3.75;;;2.80;;
78296;SDS011;67555;47.660;19.622;2023-05-10T11:31:22;5.72;;;3.20;;
78296;SDS011;67555;47.660;19.622;2023-05-10T11:33:50;5.70;;;2.58;;
78296;SDS011;67555;47.660;19.622;2023-05-10T11:38:43;5.32;;;2.88;;
78296;SDS011;67555;47.660;19.622;2023-05-10T11:41:10;4.35;;;2.92;;
78296;SDS011;67555;47.660;19.622;2023-05-10T11:43:40;5.63;;;3.00;;
78296;SDS011;67555;47.660;19.622;2023-05-10T11:46:08;4.25;;;2.70;;
78296;SDS011;67555;47.660;19.622;2023-05-10T11:48:36;5.78;;;2.85;;
78296;SDS011;67555;47.660;19.622;2023-05-10T11:51:06;3.58;;;2.55;;
78296;SDS011;67555;47.660;19.622;2023-05-10T11:53:32;6.00;;;3.28;;
78296;SDS011;67555;47.660;19.622;2023-05-10T11:56:08;6.20;;;3.05;;
78296;SDS011;67555;47.660;19.622;2023-05-10T11:58:35;4.82;;;2.70;;
78296;SDS011;67555;47.660;19.622;2023-05-10T12:01:02;5.25;;;2.97;;
78296;SDS011;67555;47.660;19.622;2023-05-10T12:03:30;5.75;;;2.40;;
78296;SDS011;67555;47.660;19.622;2023-05-10T12:05:56;5.50;;;2.50;;
78296;SDS011;67555;47.660;19.622;2023-05-10T12:08:25;5.00;;;2.75;;
78296;SDS011;67555;47.660;19.622;2023-05-10T12:10:53;5.45;;;2.60;;
78296;SDS011;67555;47.660;19.622;2023-05-10T12:13:28;4.20;;;2.42;;
78296;SDS011;67555;47.660;19.622;2023-05-10T12:15:57;3.42;;;2.53;;
78296;SDS011;67555;47.660;19.622;2023-05-10T12:18:23;4.22;;;2.45;;
78296;SDS011;67555;47.660;19.622;2023-05-10T12:20:53;5.38;;;2.70;;
78296;SDS011;67555;47.660;19.622;2023-05-10T12:23:19;3.88;;;2.40;;
78296;SDS011;67555;47.660;19.622;2023-05-10T12:25:45;4.60;;;2.50;;
78296;SDS011;67555;47.660;19.622;2023-05-10T12:28:11;5.90;;;2.80;;
78296;SDS011;67555;47.660;19.622;2023-05-10T12:30:37;2.97;;;2.13;;
78296;SDS011;67555;47.660;19.622;2023-05-10T12:33:08;5.00;;;2.50;;
78296;SDS011;67555;47.660;19.622;2023-05-10T12:35:46;4.50;;;2.55;;
78296;SDS011;67555;47.660;19.622;2023-05-10T12:38:26;5.40;;;2.83;;
78296;SDS011;67555;47.660;19.622;2023-05-10T12:40:56;7.32;;;3.05;;
78296;SDS011;67555;47.660;19.622;2023-05-10T12:43:23;5.43;;;4.07;;
78296;SDS011;67555;47.660;19.622;2023-05-10T12:45:48;3.67;;;2.70;;
78296;SDS011;67555;47.660;19.622;2023-05-10T12:48:14;4.13;;;2.58;;
78296;SDS011;67555;47.660;19.622;2023-05-10T12:50:40;5.00;;;2.80;;
78296;SDS011;67555;47.660;19.622;2023-05-10T12:53:06;3.78;;;2.30;;
78296;SDS011;67555;47.660;19.622;2023-05-10T12:55:32;5.75;;;2.58;;
78296;SDS011;67555;47.660;19.622;2023-05-10T12:57:58;5.00;;;2.90;;
78296;SDS011;67555;47.660;19.622;2023-05-10T13:00:23;7.07;;;3.05;;
78296;SDS011;67555;47.660;19.622;2023-05-10T13:02:49;5.20;;;2.60;;
78296;SDS011;67555;47.660;19.622;2023-05-10T13:05:15;3.83;;;2.40;;
78296;SDS011;67555;47.660;19.622;2023-05-10T13:07:41;4.78;;;2.55;;
78296;SDS011;67555;47.660;19.622;2023-05-10T13:10:09;3.17;;;2.15;;
78296;SDS011;67555;47.660;19.622;2023-05-10T13:12:35;4.43;;;2.35;;
78296;SDS011;67555;47.660;19.622;2023-05-10T13:48:18;3.33;;;2.42;;
78296;SDS011;67555;47.660;19.622;2023-05-10T13:50:43;6.13;;;3.08;;
78296;SDS011;67555;47.660;19.622;2023-05-10T14:21:07;5.80;;;2.97;;
78296;SDS011;67555;47.660;19.622;2023-05-10T14:23:33;5.30;;;3.13;;
78296;SDS011;67555;47.660;19.622;2023-05-10T14:25:59;4.55;;;2.75;;
78296;SDS011;67555;47.660;19.622;2023-05-10T14:28:24;3.85;;;2.72;;
78296;SDS011;67555;47.660;19.622;2023-05-10T14:30:50;5.05;;;2.95;;
78296;SDS011;67555;47.660;19.622;2023-05-10T14:33:17;5.72;;;2.88;;
78296;SDS011;67555;47.660;19.622;2023-05-10T14:35:43;5.07;;;2.88;;
78296;SDS011;67555;47.660;19.622;2023-05-10T14:38:10;4.22;;;2.67;;
78296;SDS011;67555;47.660;19.622;2023-05-10T14:40:36;5.78;;;2.97;;
78296;SDS011;67555;47.660;19.622;2023-05-10T14:43:01;4.22;;;2.53;;
78296;SDS011;67555;47.660;19.622;2023-05-10T14:45:27;5.60;;;2.72;;
78296;SDS011;67555;47.660;19.622;2023-05-10T14:47:53;5.55;;;3.00;;
78296;SDS011;67555;47.660;19.622;2023-05-10T14:50:18;6.05;;;2.60;;
78296;SDS011;67555;47.660;19.622;2023-05-10T14:52:44;5.95;;;2.70;;
78296;SDS011;67555;47.660;19.622;2023-05-10T14:55:10;8.55;;;3.05;;
78296;SDS011;67555;47.660;19.622;2023-05-10T14:57:36;6.43;;;2.88;;
78296;SDS011;67555;47.660;19.622;2023-05-10T15:00:02;4.15;;;2.70;;
78296;SDS011;67555;47.660;19.622;2023-05-10T15:02:30;5.82;;;2.65;;
78296;SDS011;67555;47.660;19.622;2023-05-10T15:04:56;4.90;;;2.75;;
78296;SDS011;67555;47.660;19.622;2023-05-10T15:07:23;5.70;;;2.70;;
78296;SDS011;67555;47.660;19.622;2023-05-10T15:09:49;4.63;;;2.80;;
78296;SDS011;67555;47.660;19.622;2023-05-10T15:12:16;7.55;;;3.08;;
78296;SDS011;67555;47.660;19.622;2023-05-10T15:14:42;6.03;;;3.30;;
78296;SDS011;67555;47.660;19.622;2023-05-10T15:17:08;4.40;;;3.13;;
78296;SDS011;67555;47.660;19.622;2023-05-10T15:19:34;4.68;;;2.70;;
78296;SDS011;67555;47.660;19.622;2023-05-10T15:21:59;4.93;;;2.65;;
78296;SDS011;67555;47.660;19.622;2023-05-10T15:24:25;5.72;;;2.65;;
78296;SDS011;67555;47.660;19.622;2023-05-10T15:26:51;4.60;;;2.70;;
78296;SDS011;67555;47.660;19.622;2023-05-10T15:29:17;4.28;;;2.58;;
78296;SDS011;67555;47.660;19.622;2023-05-10T15:31:48;4.85;;;2.70;;
78296;SDS011;67555;47.660;19.622;2023-05-10T15:34:15;3.92;;;2.60;;
78296;SDS011;67555;47.660;19.622;2023-05-10T15:36:41;4.03;;;2.60;;
78296;SDS011;67555;47.660;19.622;2023-05-10T15:39:07;4.55;;;2.45;;
78296;SDS011;67555;47.660;19.622;2023-05-10T15:41:34;4.60;;;2.40;;
78296;SDS011;67555;47.660;19.622;2023-05-10T15:44:00;4.85;;;2.72;;
78296;SDS011;67555;47.660;19.622;2023-05-10T15:46:27;5.47;;;2.55;;
78296;SDS011;67555;47.660;19.622;2023-05-10T15:48:53;5.80;;;3.22;;
78296;SDS011;67555;47.660;19.622;2023-05-10T15:51:19;4.80;;;2.60;;
78296;SDS011;67555;47.660;19.622;2023-05-10T15:53:45;5.38;;;2.60;;
78296;SDS011;67555;47.660;19.622;2023-05-10T15:56:11;5.05;;;2.72;;
78296;SDS011;67555;47.660;19.622;2023-05-10T15:58:39;3.75;;;2.55;;
78296;SDS011;67555;47.660;19.622;2023-05-10T16:01:06;5.72;;;2.50;;
78296;SDS011;67555;47.660;19.622;2023-05-10T16:03:32;5.95;;;2.63;;
78296;SDS011;67555;47.660;19.622;2023-05-10T16:05:59;5.88;;;2.50;;
78296;SDS011;67555;47.660;19.622;2023-05-10T16:08:25;3.72;;;2.40;;
78296;SDS011;67555;47.660;19.622;2023-05-10T16:10:51;3.90;;;2.17;;
78296;SDS011;67555;47.660;19.622;2023-05-10T16:13:17;4.38;;;2.72;;
78296;SDS011;67555;47.660;19.622;2023-05-10T16:15:43;4.90;;;2.22;;
78296;SDS011;67555;47.660;19.622;2023-05-10T16:18:10;3.58;;;2.25;;
78296;SDS011;67555;47.660;19.622;2023-05-10T16:20:36;4.88;;;2.60;;